sensor_id;sensor_type;location;lat;lon;timestamp;temperature;humidity
51500;DHT22;39101;53.478;6.158;2023-02-08T00:00:44;0.10;99.90
51500;DHT22;39101;53.478;6.158;2023-02-08T00:03:10;-0.30;99.90
51500;DHT22;39101;53.478;6.158;2023-02-08T00:05:35;-0.10;99.90
51500;DHT22;39101;53.478;6.158;2023-02-08T00:08:01;1.10;99.90
51500;DHT22;39101;53.478;6.158;2023-02-08T00:10:27;-0.10;99.90
51500;DHT22;39101;53.478;6.158;2023-02-08T00:12:53;-0.30;99.90
51500;DHT22;39101;53.478;6.158;2023-02-08T00:15:18;0.10;99.90
51500;DHT22;39101;53.478;6.158;2023-02-08T00:17:44;0.70;99.90
51500;DHT22;39101;53.478;6.158;2023-02-08T00:20:10;0.90;99.90
51500;DHT22;39101;53.478;6.158;2023-02-08T00:22:36;0.00;99.90
51500;DHT22;39101;53.478;6.158;2023-02-08T00:25:06;0.70;99.90
51500;DHT22;39101;53.478;6.158;2023-02-08T00:27:32;-0.10;99.90
51500;DHT22;39101;53.478;6.158;2023-02-08T00:29:58;-0.40;99.90
51500;DHT22;39101;53.478;6.158;2023-02-08T00:32:24;0.30;99.90
51500;DHT22;39101;53.478;6.158;2023-02-08T00:34:50;-0.60;99.90
51500;DHT22;39101;53.478;6.158;2023-02-08T00:37:15;0.00;99.90
51500;DHT22;39101;53.478;6.158;2023-02-08T00:39:41;-0.50;99.90
51500;DHT22;39101;53.478;6.158;2023-02-08T00:42:07;0.30;99.90
51500;DHT22;39101;53.478;6.158;2023-02-08T00:44:32;-0.50;99.90
51500;DHT22;39101;53.478;6.158;2023-02-08T00:46:58;-0.20;99.90
51500;DHT22;39101;53.478;6.158;2023-02-08T00:49:24;-0.40;99.90
51500;DHT22;39101;53.478;6.158;2023-02-08T00:51:49;0.00;99.90
51500;DHT22;39101;53.478;6.158;2023-02-08T00:54:17;-0.60;99.90
51500;DHT22;39101;53.478;6.158;2023-02-08T00:56:43;-0.10;99.90
51500;DHT22;39101;53.478;6.158;2023-02-08T00:59:09;-0.20;99.90
51500;DHT22;39101;53.478;6.158;2023-02-08T01:01:35;-0.40;99.90
51500;DHT22;39101;53.478;6.158;2023-02-08T01:04:01;-0.10;99.90
51500;DHT22;39101;53.478;6.158;2023-02-08T01:06:27;-0.20;99.90
51500;DHT22;39101;53.478;6.158;2023-02-08T01:08:53;0.20;99.90
51500;DHT22;39101;53.478;6.158;2023-02-08T01:11:20;-0.40;99.90
51500;DHT22;39101;53.478;6.158;2023-02-08T01:13:48;-0.70;99.90
51500;DHT22;39101;53.478;6.158;2023-02-08T01:16:16;-0.70;99.90
51500;DHT22;39101;53.478;6.158;2023-02-08T01:18:44;-0.50;99.90
51500;DHT22;39101;53.478;6.158;2023-02-08T01:21:16;-0.40;99.90
51500;DHT22;39101;53.478;6.158;2023-02-08T01:23:42;-0.70;99.90
51500;DHT22;39101;53.478;6.158;2023-02-08T01:26:10;-0.60;99.90
51500;DHT22;39101;53.478;6.158;2023-02-08T01:28:36;-0.60;99.90
51500;DHT22;39101;53.478;6.158;2023-02-08T01:31:13;-0.50;99.90
51500;DHT22;39101;53.478;6.158;2023-02-08T01:33:38;-0.90;99.90
51500;DHT22;39101;53.478;6.158;2023-02-08T01:36:05;0.70;99.90
51500;DHT22;39101;53.478;6.158;2023-02-08T01:38:32;-0.70;99.90
51500;DHT22;39101;53.478;6.158;2023-02-08T01:40:59;-0.60;99.90
51500;DHT22;39101;53.478;6.158;2023-02-08T01:43:33;-1.00;99.90
51500;DHT22;39101;53.478;6.158;2023-02-08T01:45:59;-1.10;99.90
51500;DHT22;39101;53.478;6.158;2023-02-08T01:51:14;-0.80;99.90
51500;DHT22;39101;53.478;6.158;2023-02-08T01:53:41;-1.00;99.90
51500;DHT22;39101;53.478;6.158;2023-02-08T01:56:13;-1.20;99.90
51500;DHT22;39101;53.478;6.158;2023-02-08T01:58:53;-1.10;99.90
51500;DHT22;39101;53.478;6.158;2023-02-08T02:01:20;-0.90;99.90
51500;DHT22;39101;53.478;6.158;2023-02-08T02:03:46;-1.10;99.90
51500;DHT22;39101;53.478;6.158;2023-02-08T02:06:21;0.00;99.90
51500;DHT22;39101;53.478;6.158;2023-02-08T02:09:15;0.30;99.90
51500;DHT22;39101;53.478;6.158;2023-02-08T02:11:42;-1.20;99.90
51500;DHT22;39101;53.478;6.158;2023-02-08T02:14:09;-0.80;99.90
51500;DHT22;39101;53.478;6.158;2023-02-08T02:16:35;-1.30;99.90
51500;DHT22;39101;53.478;6.158;2023-02-08T02:19:01;-0.60;99.90
51500;DHT22;39101;53.478;6.158;2023-02-08T02:21:48;-1.10;99.90
51500;DHT22;39101;53.478;6.158;2023-02-08T02:25:03;-1.00;99.90
51500;DHT22;39101;53.478;6.158;2023-02-08T02:27:42;-1.30;99.90
51500;DHT22;39101;53.478;6.158;2023-02-08T02:33:47;-1.00;99.90
51500;DHT22;39101;53.478;6.158;2023-02-08T02:36:32;-0.70;99.90
51500;DHT22;39101;53.478;6.158;2023-02-08T02:41:40;-0.70;99.90
51500;DHT22;39101;53.478;6.158;2023-02-08T02:47:42;-0.70;99.90
51500;DHT22;39101;53.478;6.158;2023-02-08T02:50:36;-0.40;99.90
51500;DHT22;39101;53.478;6.158;2023-02-08T02:55:45;-0.90;99.90
51500;DHT22;39101;53.478;6.158;2023-02-08T02:58:15;-0.80;99.90
51500;DHT22;39101;53.478;6.158;2023-02-08T03:00:42;-1.10;99.90
51500;DHT22;39101;53.478;6.158;2023-02-08T03:03:29;-0.80;99.90
51500;DHT22;39101;53.478;6.158;2023-02-08T03:06:02;-1.30;99.90
51500;DHT22;39101;53.478;6.158;2023-02-08T03:09:03;-0.90;99.90
51500;DHT22;39101;53.478;6.158;2023-02-08T03:11:34;-1.40;99.90
51500;DHT22;39101;53.478;6.158;2023-02-08T03:17:20;-1.30;99.90
51500;DHT22;39101;53.478;6.158;2023-02-08T03:22:32;-1.00;99.90
51500;DHT22;39101;53.478;6.158;2023-02-08T03:25:06;-1.00;99.90
51500;DHT22;39101;53.478;6.158;2023-02-08T03:28:16;-0.60;99.90
51500;DHT22;39101;53.478;6.158;2023-02-08T03:36:26;-1.00;99.90
51500;DHT22;39101;53.478;6.158;2023-02-08T03:38:55;-1.40;99.90
51500;DHT22;39101;53.478;6.158;2023-02-08T03:41:26;-0.90;99.90
51500;DHT22;39101;53.478;6.158;2023-02-08T03:44:02;-1.00;99.90
51500;DHT22;39101;53.478;6.158;2023-02-08T03:46:36;-0.90;99.90
51500;DHT22;39101;53.478;6.158;2023-02-08T03:49:07;-0.30;99.90
51500;DHT22;39101;53.478;6.158;2023-02-08T03:51:36;-0.90;99.90
51500;DHT22;39101;53.478;6.158;2023-02-08T03:54:06;-1.30;99.90
51500;DHT22;39101;53.478;6.158;2023-02-08T03:57:04;-0.90;99.90
51500;DHT22;39101;53.478;6.158;2023-02-08T03:59:37;-1.10;99.90
51500;DHT22;39101;53.478;6.158;2023-02-08T04:02:07;-1.20;99.90
51500;DHT22;39101;53.478;6.158;2023-02-08T04:04:37;0.50;99.90
51500;DHT22;39101;53.478;6.158;2023-02-08T04:07:04;-0.90;99.90
51500;DHT22;39101;53.478;6.158;2023-02-08T04:09:30;-0.90;99.90
51500;DHT22;39101;53.478;6.158;2023-02-08T04:11:56;-1.20;99.90
51500;DHT22;39101;53.478;6.158;2023-02-08T04:14:21;-1.10;99.90
51500;DHT22;39101;53.478;6.158;2023-02-08T04:16:47;-0.30;99.90
51500;DHT22;39101;53.478;6.158;2023-02-08T04:19:13;-1.00;99.90
51500;DHT22;39101;53.478;6.158;2023-02-08T04:21:38;-1.10;99.90
51500;DHT22;39101;53.478;6.158;2023-02-08T04:24:04;0.50;99.90
51500;DHT22;39101;53.478;6.158;2023-02-08T04:26:30;-1.20;99.90
51500;DHT22;39101;53.478;6.158;2023-02-08T04:28:56;-0.80;99.90
51500;DHT22;39101;53.478;6.158;2023-02-08T04:31:21;-0.90;99.90
51500;DHT22;39101;53.478;6.158;2023-02-08T04:33:47;-0.80;99.90
51500;DHT22;39101;53.478;6.158;2023-02-08T04:36:13;0.00;99.90
51500;DHT22;39101;53.478;6.158;2023-02-08T04:38:38;-1.10;99.90
51500;DHT22;39101;53.478;6.158;2023-02-08T04:41:04;-0.80;99.90
51500;DHT22;39101;53.478;6.158;2023-02-08T04:43:30;-0.80;99.90
51500;DHT22;39101;53.478;6.158;2023-02-08T04:45:55;-0.40;99.90
51500;DHT22;39101;53.478;6.158;2023-02-08T04:48:21;-1.10;99.90
51500;DHT22;39101;53.478;6.158;2023-02-08T04:50:47;-0.10;99.90
51500;DHT22;39101;53.478;6.158;2023-02-08T04:53:13;-0.90;99.90
51500;DHT22;39101;53.478;6.158;2023-02-08T04:55:39;-1.00;99.90
51500;DHT22;39101;53.478;6.158;2023-02-08T04:58:04;-1.20;99.90
51500;DHT22;39101;53.478;6.158;2023-02-08T05:00:30;-1.10;99.90
51500;DHT22;39101;53.478;6.158;2023-02-08T05:02:57;-1.10;99.90
51500;DHT22;39101;53.478;6.158;2023-02-08T05:05:24;-0.30;99.90
51500;DHT22;39101;53.478;6.158;2023-02-08T05:07:50;-0.90;99.90
51500;DHT22;39101;53.478;6.158;2023-02-08T05:10:16;-0.90;99.90
51500;DHT22;39101;53.478;6.158;2023-02-08T05:12:42;-1.40;99.90
51500;DHT22;39101;53.478;6.158;2023-02-08T05:15:09;-1.40;99.90
51500;DHT22;39101;53.478;6.158;2023-02-08T05:17:34;-0.80;99.90
51500;DHT22;39101;53.478;6.158;2023-02-08T05:20:01;0.00;99.90
51500;DHT22;39101;53.478;6.158;2023-02-08T05:22:27;-0.10;99.90
51500;DHT22;39101;53.478;6.158;2023-02-08T05:24:53;-0.60;99.90
51500;DHT22;39101;53.478;6.158;2023-02-08T05:27:19;-0.30;99.90
51500;DHT22;39101;53.478;6.158;2023-02-08T05:29:45;-0.90;99.90
51500;DHT22;39101;53.478;6.158;2023-02-08T05:32:11;0.20;99.90
51500;DHT22;39101;53.478;6.158;2023-02-08T05:34:37;-1.20;99.90
51500;DHT22;39101;53.478;6.158;2023-02-08T05:37:03;-1.20;99.90
51500;DHT22;39101;53.478;6.158;2023-02-08T05:39:29;-1.10;99.90
51500;DHT22;39101;53.478;6.158;2023-02-08T05:41:54;-1.10;99.90
51500;DHT22;39101;53.478;6.158;2023-02-08T05:44:20;0.10;99.90
51500;DHT22;39101;53.478;6.158;2023-02-08T05:46:46;-1.60;99.90
51500;DHT22;39101;53.478;6.158;2023-02-08T05:49:11;-1.60;99.90
51500;DHT22;39101;53.478;6.158;2023-02-08T05:51:37;-1.70;99.90
51500;DHT22;39101;53.478;6.158;2023-02-08T05:54:03;-1.60;99.90
51500;DHT22;39101;53.478;6.158;2023-02-08T05:56:29;-1.10;99.90
51500;DHT22;39101;53.478;6.158;2023-02-08T05:58:54;-1.80;99.90
51500;DHT22;39101;53.478;6.158;2023-02-08T06:01:21;-1.30;99.90
51500;DHT22;39101;53.478;6.158;2023-02-08T06:03:46;-0.10;99.90
51500;DHT22;39101;53.478;6.158;2023-02-08T06:06:12;-0.80;99.90
51500;DHT22;39101;53.478;6.158;2023-02-08T06:08:38;-1.70;99.90
51500;DHT22;39101;53.478;6.158;2023-02-08T06:11:05;-1.80;99.90
51500;DHT22;39101;53.478;6.158;2023-02-08T06:13:32;-1.80;99.90
51500;DHT22;39101;53.478;6.158;2023-02-08T06:15:57;-0.50;99.90
51500;DHT22;39101;53.478;6.158;2023-02-08T06:18:23;-1.00;99.90
51500;DHT22;39101;53.478;6.158;2023-02-08T06:20:52;-1.70;99.90
51500;DHT22;39101;53.478;6.158;2023-02-08T06:23:18;-1.00;99.90
51500;DHT22;39101;53.478;6.158;2023-02-08T06:25:44;-1.90;99.90
51500;DHT22;39101;53.478;6.158;2023-02-08T06:28:10;-1.40;99.90
51500;DHT22;39101;53.478;6.158;2023-02-08T06:30:36;-1.80;99.90
51500;DHT22;39101;53.478;6.158;2023-02-08T06:33:03;-1.00;99.90
51500;DHT22;39101;53.478;6.158;2023-02-08T06:35:29;-0.70;99.90
51500;DHT22;39101;53.478;6.158;2023-02-08T06:37:55;-1.60;99.90
51500;DHT22;39101;53.478;6.158;2023-02-08T06:40:21;-1.60;99.90
51500;DHT22;39101;53.478;6.158;2023-02-08T06:42:47;-1.20;99.90
51500;DHT22;39101;53.478;6.158;2023-02-08T06:45:13;-2.00;99.90
51500;DHT22;39101;53.478;6.158;2023-02-08T06:47:38;-1.90;99.90
51500;DHT22;39101;53.478;6.158;2023-02-08T06:50:04;-0.80;99.90
51500;DHT22;39101;53.478;6.158;2023-02-08T06:52:30;-1.60;99.90
51500;DHT22;39101;53.478;6.158;2023-02-08T06:54:56;-1.40;99.90
51500;DHT22;39101;53.478;6.158;2023-02-08T06:57:22;-1.60;99.90
51500;DHT22;39101;53.478;6.158;2023-02-08T06:59:48;-1.60;99.90
51500;DHT22;39101;53.478;6.158;2023-02-08T07:02:16;-0.70;99.90
51500;DHT22;39101;53.478;6.158;2023-02-08T07:04:43;-1.90;99.90
51500;DHT22;39101;53.478;6.158;2023-02-08T07:07:11;-1.60;99.90
51500;DHT22;39101;53.478;6.158;2023-02-08T07:09:37;-1.50;99.90
51500;DHT22;39101;53.478;6.158;2023-02-08T07:12:03;-1.90;99.90
51500;DHT22;39101;53.478;6.158;2023-02-08T07:14:38;-1.80;99.90
51500;DHT22;39101;53.478;6.158;2023-02-08T07:17:04;-0.60;99.90
51500;DHT22;39101;53.478;6.158;2023-02-08T07:19:30;-1.60;99.90
51500;DHT22;39101;53.478;6.158;2023-02-08T07:21:56;-0.70;99.90
51500;DHT22;39101;53.478;6.158;2023-02-08T07:24:27;-1.70;99.90
51500;DHT22;39101;53.478;6.158;2023-02-08T07:26:53;-0.80;99.90
51500;DHT22;39101;53.478;6.158;2023-02-08T07:29:18;-1.80;99.90
51500;DHT22;39101;53.478;6.158;2023-02-08T07:31:44;-1.30;99.90
51500;DHT22;39101;53.478;6.158;2023-02-08T07:34:09;-1.80;99.90
51500;DHT22;39101;53.478;6.158;2023-02-08T07:36:35;-1.20;99.90
51500;DHT22;39101;53.478;6.158;2023-02-08T07:39:01;-0.70;99.90
51500;DHT22;39101;53.478;6.158;2023-02-08T07:41:27;-1.50;99.90
51500;DHT22;39101;53.478;6.158;2023-02-08T07:43:52;-1.40;99.90
51500;DHT22;39101;53.478;6.158;2023-02-08T07:46:20;-1.00;99.90
51500;DHT22;39101;53.478;6.158;2023-02-08T07:48:46;-1.20;99.90
51500;DHT22;39101;53.478;6.158;2023-02-08T07:51:14;-0.80;99.90
51500;DHT22;39101;53.478;6.158;2023-02-08T07:53:40;-1.10;99.90
51500;DHT22;39101;53.478;6.158;2023-02-08T07:56:06;-1.10;99.90
51500;DHT22;39101;53.478;6.158;2023-02-08T07:58:32;-0.50;99.90
51500;DHT22;39101;53.478;6.158;2023-02-08T08:00:58;-1.00;99.90
51500;DHT22;39101;53.478;6.158;2023-02-08T08:03:24;-1.40;99.90
51500;DHT22;39101;53.478;6.158;2023-02-08T08:05:49;-1.30;99.90
51500;DHT22;39101;53.478;6.158;2023-02-08T08:08:16;-1.30;99.90
51500;DHT22;39101;53.478;6.158;2023-02-08T08:10:41;-1.00;99.90
51500;DHT22;39101;53.478;6.158;2023-02-08T08:13:07;-0.80;99.90
51500;DHT22;39101;53.478;6.158;2023-02-08T08:15:33;0.30;99.90
51500;DHT22;39101;53.478;6.158;2023-02-08T08:17:59;-1.20;99.90
51500;DHT22;39101;53.478;6.158;2023-02-08T08:20:25;-1.10;99.90
51500;DHT22;39101;53.478;6.158;2023-02-08T08:22:51;0.20;99.90
51500;DHT22;39101;53.478;6.158;2023-02-08T08:25:17;-0.60;99.90
51500;DHT22;39101;53.478;6.158;2023-02-08T08:27:42;-0.50;99.90
51500;DHT22;39101;53.478;6.158;2023-02-08T08:30:10;-0.80;99.90
51500;DHT22;39101;53.478;6.158;2023-02-08T08:32:37;-0.50;99.90
51500;DHT22;39101;53.478;6.158;2023-02-08T08:35:04;0.10;99.90
51500;DHT22;39101;53.478;6.158;2023-02-08T08:37:30;-0.40;99.90
51500;DHT22;39101;53.478;6.158;2023-02-08T08:39:56;-0.70;99.90
51500;DHT22;39101;53.478;6.158;2023-02-08T08:42:21;-0.70;99.90
51500;DHT22;39101;53.478;6.158;2023-02-08T08:44:47;0.40;99.90
51500;DHT22;39101;53.478;6.158;2023-02-08T08:47:13;-0.50;99.90
51500;DHT22;39101;53.478;6.158;2023-02-08T08:49:38;-0.50;99.90
51500;DHT22;39101;53.478;6.158;2023-02-08T08:52:05;-0.20;99.90
51500;DHT22;39101;53.478;6.158;2023-02-08T08:54:33;-0.50;99.90
51500;DHT22;39101;53.478;6.158;2023-02-08T08:56:58;-0.20;99.90
51500;DHT22;39101;53.478;6.158;2023-02-08T08:59:24;-0.50;99.90
51500;DHT22;39101;53.478;6.158;2023-02-08T09:01:50;-0.40;99.90
51500;DHT22;39101;53.478;6.158;2023-02-08T09:04:15;0.80;99.90
51500;DHT22;39101;53.478;6.158;2023-02-08T09:06:41;-0.30;99.90
51500;DHT22;39101;53.478;6.158;2023-02-08T09:09:07;0.30;99.90
51500;DHT22;39101;53.478;6.158;2023-02-08T09:11:33;0.40;99.90
51500;DHT22;39101;53.478;6.158;2023-02-08T09:14:01;0.30;99.90
51500;DHT22;39101;53.478;6.158;2023-02-08T09:16:27;0.60;99.90
51500;DHT22;39101;53.478;6.158;2023-02-08T09:18:52;0.40;99.90
51500;DHT22;39101;53.478;6.158;2023-02-08T09:21:20;0.70;99.90
51500;DHT22;39101;53.478;6.158;2023-02-08T09:23:46;1.10;99.90
51500;DHT22;39101;53.478;6.158;2023-02-08T09:26:15;0.70;99.90
51500;DHT22;39101;53.478;6.158;2023-02-08T09:28:41;1.00;99.90
51500;DHT22;39101;53.478;6.158;2023-02-08T09:31:14;1.10;99.90
51500;DHT22;39101;53.478;6.158;2023-02-08T09:33:40;1.90;99.90
51500;DHT22;39101;53.478;6.158;2023-02-08T09:36:06;0.80;99.90
51500;DHT22;39101;53.478;6.158;2023-02-08T09:38:33;1.30;99.90
51500;DHT22;39101;53.478;6.158;2023-02-08T09:46:20;1.60;99.90
51500;DHT22;39101;53.478;6.158;2023-02-08T09:48:49;1.70;99.90
51500;DHT22;39101;53.478;6.158;2023-02-08T09:51:39;2.00;99.90
51500;DHT22;39101;53.478;6.158;2023-02-08T09:54:13;1.80;99.90
51500;DHT22;39101;53.478;6.158;2023-02-08T09:56:40;1.70;99.90
51500;DHT22;39101;53.478;6.158;2023-02-08T09:59:17;2.20;99.90
51500;DHT22;39101;53.478;6.158;2023-02-08T10:01:47;1.80;99.90
51500;DHT22;39101;53.478;6.158;2023-02-08T10:04:36;2.40;99.90
51500;DHT22;39101;53.478;6.158;2023-02-08T10:07:04;2.00;99.90
51500;DHT22;39101;53.478;6.158;2023-02-08T10:09:30;2.10;99.90
51500;DHT22;39101;53.478;6.158;2023-02-08T10:37:37;3.00;99.90
51500;DHT22;39101;53.478;6.158;2023-02-08T10:43:13;3.20;99.90
51500;DHT22;39101;53.478;6.158;2023-02-08T10:45:51;3.10;99.90
51500;DHT22;39101;53.478;6.158;2023-02-08T10:48:33;3.20;99.90
51500;DHT22;39101;53.478;6.158;2023-02-08T10:51:02;3.80;99.90
51500;DHT22;39101;53.478;6.158;2023-02-08T10:53:28;3.30;99.90
51500;DHT22;39101;53.478;6.158;2023-02-08T10:55:54;3.80;99.90
51500;DHT22;39101;53.478;6.158;2023-02-08T10:58:22;3.40;99.90
51500;DHT22;39101;53.478;6.158;2023-02-08T11:00:50;3.50;99.90
51500;DHT22;39101;53.478;6.158;2023-02-08T11:03:26;4.10;99.90
51500;DHT22;39101;53.478;6.158;2023-02-08T11:05:53;3.50;99.90
51500;DHT22;39101;53.478;6.158;2023-02-08T11:08:21;3.60;99.90
51500;DHT22;39101;53.478;6.158;2023-02-08T11:11:02;3.90;99.90
51500;DHT22;39101;53.478;6.158;2023-02-08T11:13:45;3.90;99.90
51500;DHT22;39101;53.478;6.158;2023-02-08T11:16:24;3.90;99.90
51500;DHT22;39101;53.478;6.158;2023-02-08T11:18:52;4.00;99.90
51500;DHT22;39101;53.478;6.158;2023-02-08T11:21:27;4.20;99.90
51500;DHT22;39101;53.478;6.158;2023-02-08T11:26:51;4.30;99.90
51500;DHT22;39101;53.478;6.158;2023-02-08T11:29:22;4.30;99.90
51500;DHT22;39101;53.478;6.158;2023-02-08T11:34:31;4.50;99.90
51500;DHT22;39101;53.478;6.158;2023-02-08T11:37:22;4.60;99.90
51500;DHT22;39101;53.478;6.158;2023-02-08T11:39:55;4.60;99.90
51500;DHT22;39101;53.478;6.158;2023-02-08T11:42:27;4.60;99.90
51500;DHT22;39101;53.478;6.158;2023-02-08T11:44:54;4.90;99.90
51500;DHT22;39101;53.478;6.158;2023-02-08T11:47:39;4.70;99.90
51500;DHT22;39101;53.478;6.158;2023-02-08T11:50:06;4.80;99.90
51500;DHT22;39101;53.478;6.158;2023-02-08T11:52:37;4.90;99.90
51500;DHT22;39101;53.478;6.158;2023-02-08T12:00:38;5.00;99.90
51500;DHT22;39101;53.478;6.158;2023-02-08T12:21:44;5.10;99.90
51500;DHT22;39101;53.478;6.158;2023-02-08T12:27:12;5.20;99.90
51500;DHT22;39101;53.478;6.158;2023-02-08T12:41:37;5.40;99.90
51500;DHT22;39101;53.478;6.158;2023-02-08T12:55:00;5.60;99.90
51500;DHT22;39101;53.478;6.158;2023-02-08T12:57:28;5.50;99.90
51500;DHT22;39101;53.478;6.158;2023-02-08T13:02:31;5.60;99.90
51500;DHT22;39101;53.478;6.158;2023-02-08T13:05:02;5.70;99.90
51500;DHT22;39101;53.478;6.158;2023-02-08T13:07:37;5.80;99.90
51500;DHT22;39101;53.478;6.158;2023-02-08T13:12:48;6.00;99.90
51500;DHT22;39101;53.478;6.158;2023-02-08T13:15:18;6.10;99.90
51500;DHT22;39101;53.478;6.158;2023-02-08T13:17:56;6.20;99.90
51500;DHT22;39101;53.478;6.158;2023-02-08T13:21:02;6.10;99.90
51500;DHT22;39101;53.478;6.158;2023-02-08T13:23:37;6.10;99.90
51500;DHT22;39101;53.478;6.158;2023-02-08T13:26:32;6.20;99.90
51500;DHT22;39101;53.478;6.158;2023-02-08T13:29:00;6.30;99.90
51500;DHT22;39101;53.478;6.158;2023-02-08T13:31:37;6.40;99.90
51500;DHT22;39101;53.478;6.158;2023-02-08T13:34:11;6.30;99.90
51500;DHT22;39101;53.478;6.158;2023-02-08T13:36:40;6.40;99.90
51500;DHT22;39101;53.478;6.158;2023-02-08T13:41:57;6.40;99.90
51500;DHT22;39101;53.478;6.158;2023-02-08T13:44:36;6.40;99.90
51500;DHT22;39101;53.478;6.158;2023-02-08T13:47:04;6.30;99.90
51500;DHT22;39101;53.478;6.158;2023-02-08T13:57:57;5.90;99.90
51500;DHT22;39101;53.478;6.158;2023-02-08T14:00:28;5.80;99.90
51500;DHT22;39101;53.478;6.158;2023-02-08T14:05:54;5.80;99.90
51500;DHT22;39101;53.478;6.158;2023-02-08T14:08:27;5.80;99.90
51500;DHT22;39101;53.478;6.158;2023-02-08T14:11:13;5.80;99.90
51500;DHT22;39101;53.478;6.158;2023-02-08T14:19:42;5.90;99.90
51500;DHT22;39101;53.478;6.158;2023-02-08T14:27:19;6.00;99.90
51500;DHT22;39101;53.478;6.158;2023-02-08T14:32:30;6.50;99.90
51500;DHT22;39101;53.478;6.158;2023-02-08T14:37:38;7.40;99.90
51500;DHT22;39101;53.478;6.158;2023-02-08T14:45:32;7.50;99.90
51500;DHT22;39101;53.478;6.158;2023-02-08T14:50:35;7.00;99.90
51500;DHT22;39101;53.478;6.158;2023-02-08T14:55:48;6.60;99.90
51500;DHT22;39101;53.478;6.158;2023-02-08T14:58:26;6.40;99.90
51500;DHT22;39101;53.478;6.158;2023-02-08T15:00:54;6.50;99.90
51500;DHT22;39101;53.478;6.158;2023-02-08T15:03:21;6.70;99.90
51500;DHT22;39101;53.478;6.158;2023-02-08T15:08:40;7.20;99.90
51500;DHT22;39101;53.478;6.158;2023-02-08T15:11:21;7.20;99.90
51500;DHT22;39101;53.478;6.158;2023-02-08T15:13:49;6.90;99.90
51500;DHT22;39101;53.478;6.158;2023-02-08T15:16:17;6.70;99.90
51500;DHT22;39101;53.478;6.158;2023-02-08T15:18:47;6.50;99.90
51500;DHT22;39101;53.478;6.158;2023-02-08T15:21:21;6.40;99.90
51500;DHT22;39101;53.478;6.158;2023-02-08T15:24:00;6.20;99.90
51500;DHT22;39101;53.478;6.158;2023-02-08T15:26:27;6.10;99.90
51500;DHT22;39101;53.478;6.158;2023-02-08T15:28:54;6.00;99.90
51500;DHT22;39101;53.478;6.158;2023-02-08T15:31:30;5.90;99.90
51500;DHT22;39101;53.478;6.158;2023-02-08T15:33:57;5.80;99.90
51500;DHT22;39101;53.478;6.158;2023-02-08T15:36:35;5.70;99.90
51500;DHT22;39101;53.478;6.158;2023-02-08T15:39:09;5.60;99.90
51500;DHT22;39101;53.478;6.158;2023-02-08T15:41:35;5.50;99.90
51500;DHT22;39101;53.478;6.158;2023-02-08T15:46:31;5.30;99.90
51500;DHT22;39101;53.478;6.158;2023-02-08T15:48:58;5.20;99.90
51500;DHT22;39101;53.478;6.158;2023-02-08T15:51:25;5.10;99.90
51500;DHT22;39101;53.478;6.158;2023-02-08T15:53:53;5.00;99.90
51500;DHT22;39101;53.478;6.158;2023-02-08T15:56:27;4.90;99.90
51500;DHT22;39101;53.478;6.158;2023-02-08T15:58:56;4.90;99.90
51500;DHT22;39101;53.478;6.158;2023-02-08T16:01:23;4.80;99.90
51500;DHT22;39101;53.478;6.158;2023-02-08T16:03:56;4.70;99.90
51500;DHT22;39101;53.478;6.158;2023-02-08T16:06:28;4.60;99.90
51500;DHT22;39101;53.478;6.158;2023-02-08T16:08:58;4.40;99.90
51500;DHT22;39101;53.478;6.158;2023-02-08T16:11:27;4.30;99.90
51500;DHT22;39101;53.478;6.158;2023-02-08T16:13:56;4.60;99.90
51500;DHT22;39101;53.478;6.158;2023-02-08T16:19:02;3.90;99.90
51500;DHT22;39101;53.478;6.158;2023-02-08T16:21:37;4.00;99.90
51500;DHT22;39101;53.478;6.158;2023-02-08T16:29:33;3.50;99.90
51500;DHT22;39101;53.478;6.158;2023-02-08T16:32:06;3.30;99.90
51500;DHT22;39101;53.478;6.158;2023-02-08T16:34:36;3.20;99.90
51500;DHT22;39101;53.478;6.158;2023-02-08T16:37:04;3.20;99.90
51500;DHT22;39101;53.478;6.158;2023-02-08T16:40:00;3.00;99.90
51500;DHT22;39101;53.478;6.158;2023-02-08T16:42:32;3.20;99.90
51500;DHT22;39101;53.478;6.158;2023-02-08T16:45:11;2.80;99.90
51500;DHT22;39101;53.478;6.158;2023-02-08T16:48:00;2.70;99.90
51500;DHT22;39101;53.478;6.158;2023-02-08T16:50:26;2.70;99.90
51500;DHT22;39101;53.478;6.158;2023-02-08T16:52:59;3.00;99.90
51500;DHT22;39101;53.478;6.158;2023-02-08T16:55:29;2.60;99.90
51500;DHT22;39101;53.478;6.158;2023-02-08T16:57:57;2.60;99.90
51500;DHT22;39101;53.478;6.158;2023-02-08T17:00:25;2.50;99.90
51500;DHT22;39101;53.478;6.158;2023-02-08T17:02:52;2.40;99.90
51500;DHT22;39101;53.478;6.158;2023-02-08T17:05:20;2.50;99.90
51500;DHT22;39101;53.478;6.158;2023-02-08T17:07:46;2.30;99.90
51500;DHT22;39101;53.478;6.158;2023-02-08T17:10:25;2.20;99.90
51500;DHT22;39101;53.478;6.158;2023-02-08T17:12:51;2.20;99.90
51500;DHT22;39101;53.478;6.158;2023-02-08T17:15:17;2.00;99.90
51500;DHT22;39101;53.478;6.158;2023-02-08T17:17:46;2.00;99.90
51500;DHT22;39101;53.478;6.158;2023-02-08T17:20:21;2.00;99.90
51500;DHT22;39101;53.478;6.158;2023-02-08T17:22:48;1.90;99.90
51500;DHT22;39101;53.478;6.158;2023-02-08T17:25:14;2.10;99.90
51500;DHT22;39101;53.478;6.158;2023-02-08T17:28:04;1.70;99.90
51500;DHT22;39101;53.478;6.158;2023-02-08T17:30:41;1.80;99.90
51500;DHT22;39101;53.478;6.158;2023-02-08T17:33:09;1.60;99.90
51500;DHT22;39101;53.478;6.158;2023-02-08T17:35:36;1.60;99.90
51500;DHT22;39101;53.478;6.158;2023-02-08T17:38:03;1.50;99.90
51500;DHT22;39101;53.478;6.158;2023-02-08T17:40:31;1.60;99.90
51500;DHT22;39101;53.478;6.158;2023-02-08T17:43:01;1.30;99.90
51500;DHT22;39101;53.478;6.158;2023-02-08T17:45:28;1.50;99.90
51500;DHT22;39101;53.478;6.158;2023-02-08T17:47:54;1.30;99.90
51500;DHT22;39101;53.478;6.158;2023-02-08T17:50:21;1.30;99.90
51500;DHT22;39101;53.478;6.158;2023-02-08T17:52:48;1.00;99.90
51500;DHT22;39101;53.478;6.158;2023-02-08T17:55:15;1.00;99.90
51500;DHT22;39101;53.478;6.158;2023-02-08T17:57:41;1.00;99.90
51500;DHT22;39101;53.478;6.158;2023-02-08T18:00:13;1.00;99.90
51500;DHT22;39101;53.478;6.158;2023-02-08T18:02:48;0.90;99.90
51500;DHT22;39101;53.478;6.158;2023-02-08T18:05:15;0.80;99.90
51500;DHT22;39101;53.478;6.158;2023-02-08T18:07:41;0.90;99.90
51500;DHT22;39101;53.478;6.158;2023-02-08T18:10:08;0.70;99.90
51500;DHT22;39101;53.478;6.158;2023-02-08T18:12:35;0.80;99.90
51500;DHT22;39101;53.478;6.158;2023-02-08T18:15:03;0.80;99.90
51500;DHT22;39101;53.478;6.158;2023-02-08T18:17:30;0.70;99.90
51500;DHT22;39101;53.478;6.158;2023-02-08T18:19:57;1.10;99.90
51500;DHT22;39101;53.478;6.158;2023-02-08T18:22:23;1.00;99.90
51500;DHT22;39101;53.478;6.158;2023-02-08T18:24:48;1.00;99.90
51500;DHT22;39101;53.478;6.158;2023-02-08T18:27:15;0.90;99.90
51500;DHT22;39101;53.478;6.158;2023-02-08T18:29:41;1.40;99.90
51500;DHT22;39101;53.478;6.158;2023-02-08T18:32:07;0.70;99.90
51500;DHT22;39101;53.478;6.158;2023-02-08T18:34:33;0.60;99.90
51500;DHT22;39101;53.478;6.158;2023-02-08T18:36:59;1.00;99.90
51500;DHT22;39101;53.478;6.158;2023-02-08T18:39:25;1.20;99.90
51500;DHT22;39101;53.478;6.158;2023-02-08T18:41:51;0.90;99.90
51500;DHT22;39101;53.478;6.158;2023-02-08T18:44:17;0.90;99.90
51500;DHT22;39101;53.478;6.158;2023-02-08T18:46:43;0.90;99.90